createdAt,value
2019-02-26T00:00:34.589Z,81.68
2019-02-26T00:01:34.598Z,80.93
2019-02-26T00:02:34.614Z,81.12
2019-02-26T00:03:35.450Z,80.74
2019-02-26T00:04:36.814Z,80.45
2019-02-26T00:05:34.661Z,80.16
2019-02-26T00:06:34.679Z,80.16
2019-02-26T00:07:34.704Z,79.69
2019-02-26T00:08:34.717Z,79.79
2019-02-26T00:09:35.468Z,79.97
2019-02-26T00:10:38.514Z,80.16
2019-02-26T00:11:36.197Z,80.45
2019-02-26T00:12:35.616Z,80.16
2019-02-26T00:13:36.584Z,79.60
2019-02-26T00:14:34.807Z,79.31
2019-02-26T00:15:35.861Z,79.31
2019-02-26T00:16:37.606Z,79.31
2019-02-26T00:17:38.643Z,79.31
2019-02-26T00:18:34.879Z,79.41
2019-02-26T00:19:34.890Z,79.69
2019-02-26T00:20:37.220Z,80.35
2019-02-26T00:21:34.918Z,80.41
2019-02-26T00:22:36.659Z,80.32
2019-02-26T00:23:34.949Z,80.69
2019-02-26T00:24:35.357Z,81.26
2019-02-26T00:25:34.978Z,81.84
2019-02-26T00:26:36.318Z,82.31
2019-02-26T00:27:35.181Z,82.59
2019-02-26T00:28:36.535Z,82.59
2019-02-26T00:29:35.039Z,82.69
2019-02-26T00:30:36.058Z,82.59
2019-02-26T00:31:35.079Z,82.88
2019-02-26T00:32:36.584Z,82.78
2019-02-26T00:33:35.102Z,82.21
2019-02-26T00:34:36.877Z,82.69
2019-02-26T00:35:35.139Z,82.03
2019-02-26T00:36:36.493Z,82.40
2019-02-26T00:37:35.165Z,82.40
2019-02-26T00:38:35.862Z,82.40
2019-02-26T00:39:35.205Z,82.21
2019-02-26T00:40:37.127Z,82.31
2019-02-26T00:41:35.793Z,82.12
2019-02-26T00:42:36.043Z,82.40
2019-02-26T00:43:36.939Z,82.69
2019-02-26T00:44:37.265Z,82.40
2019-02-26T00:45:38.524Z,82.40
2019-02-26T00:46:37.082Z,82.69
2019-02-26T00:47:36.337Z,82.69
2019-02-26T00:48:35.978Z,82.97
2019-02-26T00:49:35.359Z,83.07
2019-02-26T00:50:37.315Z,83.83
2019-02-26T00:51:35.385Z,83.45
2019-02-26T00:52:37.135Z,83.83
2019-02-26T00:53:35.419Z,84.11
2019-02-26T00:54:36.606Z,84.21
2019-02-26T00:55:37.351Z,84.68
2019-02-26T00:56:36.436Z,84.59
2019-02-26T00:57:36.639Z,84.21
2019-02-26T00:58:38.952Z,84.40
2019-02-26T00:59:36.630Z,84.64
2019-02-26T01:00:35.596Z,84.74
2019-02-26T01:01:35.549Z,84.92
2019-02-26T01:02:35.561Z,85.49
2019-02-26T01:03:35.579Z,85.72
2019-02-26T01:04:35.592Z,85.63
2019-02-26T01:05:36.360Z,85.49
2019-02-26T01:06:35.623Z,85.68
2019-02-26T01:07:35.637Z,85.59
2019-02-26T01:08:37.505Z,85.97
2019-02-26T01:09:35.669Z,85.87
2019-02-26T01:10:37.568Z,86.16
2019-02-26T01:11:35.701Z,86.16
2019-02-26T01:12:37.530Z,85.78
2019-02-26T01:13:35.736Z,85.97
2019-02-26T01:14:35.753Z,85.59
2019-02-26T01:15:35.771Z,85.68
2019-02-26T01:16:37.138Z,85.68
2019-02-26T01:17:37.860Z,85.53
2019-02-26T01:18:35.810Z,85.35
2019-02-26T01:19:36.913Z,85.53
2019-02-26T01:20:35.840Z,85.06
2019-02-26T01:21:37.892Z,84.78
2019-02-26T01:22:37.773Z,85.06
2019-02-26T01:23:35.891Z,84.59
2019-02-26T01:24:35.904Z,84.87
2019-02-26T01:25:38.262Z,84.87
2019-02-26T01:26:35.937Z,85.35
2019-02-26T01:27:35.948Z,85.35
2019-02-26T01:28:35.975Z,85.82
2019-02-26T01:29:35.983Z,85.53
2019-02-26T01:30:36.279Z,85.53
2019-02-26T01:31:36.016Z,85.63
2019-02-26T01:32:36.033Z,85.72
2019-02-26T01:33:36.044Z,85.91
2019-02-26T01:34:37.802Z,86.11
2019-02-26T01:35:37.801Z,86.87
2019-02-26T01:36:36.093Z,86.30
2019-02-26T01:37:36.585Z,85.63
2019-02-26T01:38:39.504Z,85.35
2019-02-26T01:39:38.410Z,85.72
2019-02-26T01:40:39.373Z,85.53
2019-02-26T01:41:36.173Z,85.53
2019-02-26T01:42:36.186Z,85.82
2019-02-26T01:43:36.200Z,85.82
2019-02-26T01:44:38.074Z,86.01
2019-02-26T01:45:36.231Z,85.97
2019-02-26T01:46:36.590Z,86.68
2019-02-26T01:47:36.266Z,86.49
2019-02-26T01:48:37.380Z,86.58
2019-02-26T01:49:36.296Z,86.58
2019-02-26T01:50:37.959Z,86.58
2019-02-26T01:51:36.322Z,86.44
2019-02-26T01:52:36.343Z,86.44
2019-02-26T01:53:36.354Z,86.25
2019-02-26T01:54:37.453Z,86.16
2019-02-26T01:55:36.407Z,86.82
2019-02-26T01:56:37.021Z,86.91
2019-02-26T01:57:36.421Z,87.20
2019-02-26T01:58:36.430Z,87.39
2019-02-26T01:59:36.449Z,87.96
2019-02-26T02:00:38.656Z,87.39
2019-02-26T02:01:39.999Z,87.87
2019-02-26T02:02:36.494Z,88.15
2019-02-26T02:03:36.514Z,88.06
2019-02-26T02:04:38.782Z,87.49
2019-02-26T02:05:36.538Z,87.77
2019-02-26T02:06:37.023Z,88.34
2019-02-26T02:07:36.575Z,88.34
2019-02-26T02:08:39.328Z,88.53
2019-02-26T02:09:36.601Z,88.81
2019-02-26T02:10:36.621Z,89.06
2019-02-26T02:11:38.122Z,88.87
2019-02-26T02:12:37.362Z,89.06
2019-02-26T02:13:38.617Z,88.91
2019-02-26T02:14:36.681Z,89.34
2019-02-26T02:15:37.845Z,89.39
2019-02-26T02:16:36.708Z,89.58
2019-02-26T02:17:38.377Z,89.67
2019-02-26T02:18:36.742Z,89.58
2019-02-26T02:19:36.755Z,89.67
2019-02-26T02:20:36.776Z,89.29
2019-02-26T02:21:36.785Z,89.29
2019-02-26T02:22:37.740Z,89.00
2019-02-26T02:23:36.821Z,89.39
2019-02-26T02:24:39.326Z,89.20
2019-02-26T02:25:40.313Z,89.39
2019-02-26T02:26:36.865Z,89.39
2019-02-26T02:27:36.875Z,88.81
2019-02-26T02:28:36.895Z,89.00
2019-02-26T02:29:36.910Z,89.06
2019-02-26T02:30:39.015Z,88.20
2019-02-26T02:31:37.822Z,88.87
2019-02-26T02:32:36.986Z,89.06
2019-02-26T02:33:37.530Z,89.48
2019-02-26T02:34:39.843Z,88.87
2019-02-26T02:35:37.008Z,89.43
2019-02-26T02:36:37.022Z,89.15
2019-02-26T02:37:37.036Z,89.81
2019-02-26T02:38:37.265Z,90.00
2019-02-26T02:39:37.070Z,89.76
2019-02-26T02:40:38.046Z,89.29
2019-02-26T02:41:39.373Z,88.91
2019-02-26T02:42:37.729Z,88.53
2019-02-26T02:43:37.121Z,88.24
2019-02-26T02:44:39.028Z,88.24
2019-02-26T02:45:37.159Z,88.15
2019-02-26T02:46:39.188Z,88.15
2019-02-26T02:47:38.813Z,88.34
2019-02-26T02:48:37.202Z,88.24
2019-02-26T02:49:39.376Z,88.34
2019-02-26T02:50:37.232Z,88.15
2019-02-26T02:51:39.494Z,88.24
2019-02-26T02:52:37.955Z,88.43
2019-02-26T02:53:37.279Z,88.62
2019-02-26T02:54:38.541Z,88.34
2019-02-26T02:55:37.847Z,88.81
2019-02-26T02:56:39.899Z,89.10
2019-02-26T02:57:37.334Z,89.20
2019-02-26T02:58:38.591Z,88.91
2019-02-26T02:59:39.562Z,89.00
2019-02-26T03:00:37.379Z,88.72
2019-02-26T03:01:37.404Z,89.29
2019-02-26T03:02:40.495Z,88.91
2019-02-26T03:03:37.435Z,89.00
2019-02-26T03:04:37.440Z,89.10
2019-02-26T03:05:40.516Z,89.29
2019-02-26T03:06:38.685Z,89.06
2019-02-26T03:07:37.493Z,89.06
2019-02-26T03:08:39.304Z,89.25
2019-02-26T03:09:38.568Z,89.58
2019-02-26T03:10:40.142Z,89.53
2019-02-26T03:11:41.118Z,89.72
2019-02-26T03:12:37.568Z,89.91
2019-02-26T03:13:37.582Z,90.10
2019-02-26T03:14:39.240Z,89.62
2019-02-26T03:15:37.606Z,89.91
2019-02-26T03:16:39.957Z,90.19
2019-02-26T03:17:37.636Z,90.29
2019-02-26T03:18:37.657Z,90.29
2019-02-26T03:19:40.707Z,90.48
2019-02-26T03:20:40.316Z,90.10
2019-02-26T03:21:37.699Z,90.29
2019-02-26T03:22:39.692Z,89.62
2019-02-26T03:23:40.381Z,90.29
2019-02-26T03:24:37.757Z,89.72
2019-02-26T03:25:37.760Z,89.81
2019-02-26T03:26:37.773Z,90.10
2019-02-26T03:27:40.602Z,90.19
2019-02-26T03:28:39.986Z,89.43
2019-02-26T03:29:37.818Z,89.25
2019-02-26T03:30:40.487Z,89.34
2019-02-26T03:31:41.131Z,88.87
2019-02-26T03:32:41.290Z,87.82
2019-02-26T03:33:37.893Z,87.82
2019-02-26T03:34:37.910Z,87.63
2019-02-26T03:35:37.905Z,87.45
2019-02-26T03:36:40.178Z,87.63
2019-02-26T03:37:37.939Z,87.45
2019-02-26T03:38:37.949Z,87.82
2019-02-26T03:39:37.969Z,87.16
2019-02-26T03:40:37.985Z,87.35
2019-02-26T03:41:37.995Z,87.06
2019-02-26T03:42:40.449Z,87.16
2019-02-26T03:43:39.297Z,87.35
2019-02-26T03:44:38.037Z,86.59
2019-02-26T03:45:38.053Z,87.25
2019-02-26T03:46:38.074Z,87.16
2019-02-26T03:47:40.224Z,87.73
2019-02-26T03:48:38.095Z,87.63
2019-02-26T03:49:41.756Z,88.01
2019-02-26T03:50:38.133Z,88.01
2019-02-26T03:51:39.676Z,87.73
2019-02-26T03:52:38.161Z,87.82
2019-02-26T03:53:39.133Z,88.39
2019-02-26T03:54:40.321Z,88.29
2019-02-26T03:55:39.167Z,88.68
2019-02-26T03:56:38.216Z,88.29
2019-02-26T03:57:41.110Z,88.01
2019-02-26T03:58:38.251Z,88.01
2019-02-26T03:59:38.261Z,88.01
2019-02-26T04:00:40.982Z,87.82
2019-02-26T04:01:38.293Z,88.39
2019-02-26T04:02:39.877Z,88.58
2019-02-26T04:03:39.557Z,88.29
2019-02-26T04:04:38.333Z,88.39
2019-02-26T04:05:38.369Z,88.29
2019-02-26T04:06:38.981Z,88.10
2019-02-26T04:07:38.387Z,88.20
2019-02-26T04:08:38.398Z,88.68
2019-02-26T04:09:41.818Z,88.77
2019-02-26T04:10:38.435Z,88.48
2019-02-26T04:11:39.685Z,88.20
2019-02-26T04:12:41.938Z,88.10
2019-02-26T04:13:38.474Z,88.29
2019-02-26T04:14:38.491Z,88.29
2019-02-26T04:15:38.504Z,88.29
2019-02-26T04:16:40.428Z,88.68
2019-02-26T04:17:40.146Z,88.87
2019-02-26T04:18:38.543Z,89.25
2019-02-26T04:19:38.565Z,89.15
2019-02-26T04:20:43.387Z,89.15
2019-02-26T04:21:38.596Z,89.34
2019-02-26T04:22:40.184Z,89.25
2019-02-26T04:23:41.014Z,89.53
2019-02-26T04:24:38.643Z,89.81
2019-02-26T04:25:38.651Z,90.00
2019-02-26T04:26:38.665Z,90.10
2019-02-26T04:27:39.394Z,89.62
2019-02-26T04:28:40.153Z,89.72
2019-02-26T04:29:40.784Z,89.91
2019-02-26T04:30:39.325Z,90.72
2019-02-26T04:31:38.742Z,90.57
2019-02-26T04:32:40.854Z,90.53
2019-02-26T04:33:41.323Z,90.43
2019-02-26T04:34:38.782Z,90.72
2019-02-26T04:35:39.046Z,90.91
2019-02-26T04:36:41.625Z,91.47
2019-02-26T04:37:38.833Z,91.09
2019-02-26T04:38:38.842Z,91.76
2019-02-26T04:39:40.310Z,91.57
2019-02-26T04:40:40.859Z,91.09
2019-02-26T04:41:38.891Z,91.47
2019-02-26T04:42:40.996Z,91.52
2019-02-26T04:43:38.919Z,91.28
2019-02-26T04:44:38.945Z,91.47
2019-02-26T04:45:38.952Z,91.38
2019-02-26T04:46:39.509Z,91.28
2019-02-26T04:47:40.646Z,91.28
2019-02-26T04:48:38.992Z,91.76
2019-02-26T04:49:42.543Z,91.57
2019-02-26T04:50:41.375Z,91.85
2019-02-26T04:51:39.872Z,91.76
2019-02-26T04:52:42.828Z,91.85
2019-02-26T04:53:39.067Z,91.57
2019-02-26T04:54:39.658Z,91.57
2019-02-26T04:55:41.343Z,91.42
2019-02-26T04:56:40.240Z,91.80
2019-02-26T04:57:42.080Z,91.28
2019-02-26T04:58:41.898Z,91.19
2019-02-26T04:59:41.213Z,91.28
2019-02-26T05:00:39.167Z,91.42
2019-02-26T05:01:39.179Z,91.57
2019-02-26T05:02:39.202Z,91.57
2019-02-26T05:03:39.221Z,91.28
2019-02-26T05:04:40.055Z,91.85
2019-02-26T05:05:39.239Z,91.76
2019-02-26T05:06:39.259Z,92.23
2019-02-26T05:07:42.294Z,91.95
2019-02-26T05:08:40.336Z,91.76
2019-02-26T05:09:39.303Z,91.57
2019-02-26T05:10:39.322Z,91.76
2019-02-26T05:11:40.772Z,91.76
2019-02-26T05:12:40.166Z,91.80
2019-02-26T05:13:39.363Z,91.80
2019-02-26T05:14:39.378Z,91.99
2019-02-26T05:15:39.392Z,91.33
2019-02-26T05:16:40.370Z,91.42
2019-02-26T05:17:39.425Z,91.61
2019-02-26T05:18:39.439Z,91.24
2019-02-26T05:19:42.323Z,91.52
2019-02-26T05:20:43.136Z,91.42
2019-02-26T05:21:39.484Z,91.24
2019-02-26T05:22:39.496Z,91.52
2019-02-26T05:23:39.517Z,91.61
2019-02-26T05:24:43.786Z,91.33
2019-02-26T05:25:40.518Z,91.24
2019-02-26T05:26:39.558Z,91.24
2019-02-26T05:27:42.385Z,91.42
2019-02-26T05:28:40.849Z,91.42
2019-02-26T05:29:40.980Z,91.33
2019-02-26T05:30:40.425Z,91.33
2019-02-26T05:31:40.240Z,91.42
2019-02-26T05:32:39.646Z,91.61
2019-02-26T05:33:39.663Z,91.33
2019-02-26T05:34:42.247Z,91.61
2019-02-26T05:35:40.872Z,91.80
2019-02-26T05:36:42.889Z,92.28
2019-02-26T05:37:41.009Z,91.90
2019-02-26T05:38:39.734Z,92.47
2019-02-26T05:39:40.542Z,92.38
2019-02-26T05:40:40.426Z,92.76
2019-02-26T05:41:40.497Z,92.85
2019-02-26T05:42:39.799Z,92.76
2019-02-26T05:43:39.809Z,92.76
2019-02-26T05:44:39.835Z,92.33
2019-02-26T05:45:39.839Z,92.80
2019-02-26T05:46:39.855Z,92.90
2019-02-26T05:47:39.873Z,93.18
2019-02-26T05:48:42.474Z,93.46
2019-02-26T05:49:41.409Z,93.94
2019-02-26T05:50:43.839Z,93.84
2019-02-26T05:51:39.927Z,93.94
2019-02-26T05:52:39.945Z,94.04
2019-02-26T05:53:39.955Z,94.32
2019-02-26T05:54:39.968Z,93.94
2019-02-26T05:55:42.263Z,94.04
2019-02-26T05:56:41.302Z,93.84
2019-02-26T05:57:40.012Z,94.23
2019-02-26T05:58:41.908Z,93.75
2019-02-26T05:59:41.925Z,94.32
2019-02-26T06:00:40.059Z,93.84
2019-02-26T06:01:40.075Z,93.94
2019-02-26T06:02:44.301Z,93.94
2019-02-26T06:03:41.075Z,93.84
2019-02-26T06:04:41.117Z,93.84
2019-02-26T06:05:43.486Z,93.65
2019-02-26T06:06:40.146Z,93.94
2019-02-26T06:07:40.158Z,93.84
2019-02-26T06:08:41.291Z,93.65
2019-02-26T06:09:40.188Z,93.75
2019-02-26T06:10:40.200Z,93.94
2019-02-26T06:11:42.863Z,94.04
2019-02-26T06:12:41.467Z,94.23
2019-02-26T06:13:42.716Z,94.51
2019-02-26T06:14:40.258Z,94.79
2019-02-26T06:15:40.276Z,94.42
2019-02-26T06:16:40.291Z,94.60
2019-02-26T06:17:43.052Z,94.79
2019-02-26T06:18:42.002Z,94.89
2019-02-26T06:19:42.341Z,94.60
2019-02-26T06:20:40.346Z,94.89
2019-02-26T06:21:43.968Z,94.42
2019-02-26T06:22:40.378Z,93.84
2019-02-26T06:23:40.411Z,94.13
2019-02-26T06:24:40.407Z,94.60
2019-02-26T06:25:40.419Z,94.04
2019-02-26T06:26:41.315Z,94.13
2019-02-26T06:27:40.451Z,93.94
2019-02-26T06:28:42.836Z,94.60
2019-02-26T06:29:40.480Z,94.42
2019-02-26T06:30:40.495Z,94.79
2019-02-26T06:31:42.270Z,94.89
2019-02-26T06:32:42.656Z,95.36
2019-02-26T06:33:41.287Z,95.26
2019-02-26T06:34:40.552Z,95.36
2019-02-26T06:35:42.399Z,95.26
2019-02-26T06:36:42.080Z,95.07
2019-02-26T06:37:40.601Z,95.26
2019-02-26T06:38:40.614Z,95.26
2019-02-26T06:39:40.648Z,95.17
2019-02-26T06:40:41.985Z,95.26
2019-02-26T06:41:41.933Z,94.93
2019-02-26T06:42:40.667Z,94.98
2019-02-26T06:43:45.036Z,94.93
2019-02-26T06:44:41.375Z,95.03
2019-02-26T06:45:43.080Z,95.03
2019-02-26T06:46:40.726Z,94.65
2019-02-26T06:47:40.741Z,94.74
2019-02-26T06:48:40.754Z,95.12
2019-02-26T06:49:41.435Z,94.74
2019-02-26T06:50:41.599Z,94.18
2019-02-26T06:51:40.796Z,93.89
2019-02-26T06:52:43.016Z,93.89
2019-02-26T06:53:43.214Z,93.80
2019-02-26T06:54:40.848Z,93.89
2019-02-26T06:55:40.858Z,93.99
2019-02-26T06:56:43.780Z,94.08
2019-02-26T06:57:41.312Z,93.89
2019-02-26T06:58:42.755Z,94.08
2019-02-26T06:59:40.917Z,93.51
2019-02-26T07:00:41.484Z,93.41
2019-02-26T07:01:42.030Z,93.23
2019-02-26T07:02:45.503Z,93.23
2019-02-26T07:03:40.981Z,93.23
2019-02-26T07:04:40.990Z,93.80
2019-02-26T07:05:42.370Z,94.27
2019-02-26T07:06:41.025Z,93.89
2019-02-26T07:07:41.032Z,94.18
2019-02-26T07:08:42.179Z,93.80
2019-02-26T07:09:42.057Z,94.89
2019-02-26T07:10:41.077Z,94.70
2019-02-26T07:11:41.093Z,94.79
2019-02-26T07:12:43.045Z,94.98
2019-02-26T07:13:43.428Z,94.60
2019-02-26T07:14:41.136Z,94.70
2019-02-26T07:15:42.951Z,94.70
2019-02-26T07:16:41.168Z,94.60
2019-02-26T07:17:42.945Z,94.79
2019-02-26T07:18:41.192Z,94.89
2019-02-26T07:19:41.215Z,94.70
2019-02-26T07:20:46.484Z,94.60
2019-02-26T07:21:42.821Z,94.70
2019-02-26T07:22:42.016Z,94.70
2019-02-26T07:23:41.269Z,94.70
2019-02-26T07:24:43.634Z,94.70
2019-02-26T07:25:43.443Z,94.18
2019-02-26T07:26:43.626Z,94.04
2019-02-26T07:27:41.327Z,94.13
2019-02-26T07:28:42.223Z,94.23
2019-02-26T07:29:44.381Z,94.79
2019-02-26T07:30:42.847Z,94.60
2019-02-26T07:31:41.386Z,94.70
2019-02-26T07:32:43.755Z,94.60
2019-02-26T07:33:41.413Z,94.65
2019-02-26T07:34:42.809Z,94.84
2019-02-26T07:35:41.446Z,94.74
2019-02-26T07:36:43.166Z,94.74
2019-02-26T07:37:41.470Z,94.74
2019-02-26T07:38:43.825Z,94.93
2019-02-26T07:39:41.961Z,94.84
2019-02-26T07:40:41.515Z,94.18
2019-02-26T07:41:42.297Z,94.46
2019-02-26T07:42:43.832Z,94.56
2019-02-26T07:43:44.109Z,94.08
2019-02-26T07:44:41.572Z,93.80
2019-02-26T07:45:41.585Z,93.80
2019-02-26T07:46:42.562Z,93.23
2019-02-26T07:47:41.617Z,93.23
2019-02-26T07:48:41.633Z,93.41
2019-02-26T07:49:41.654Z,93.75
2019-02-26T07:50:44.086Z,93.04
2019-02-26T07:51:43.010Z,93.04
2019-02-26T07:52:41.690Z,93.61
2019-02-26T07:53:44.387Z,93.46
2019-02-26T07:54:42.764Z,92.99
2019-02-26T07:55:42.348Z,93.08
2019-02-26T07:56:41.751Z,93.08
2019-02-26T07:57:43.639Z,93.46
2019-02-26T07:58:43.152Z,92.80
2019-02-26T07:59:42.588Z,92.71
2019-02-26T08:00:42.887Z,92.71
2019-02-26T08:01:42.956Z,92.14
2019-02-26T08:02:41.842Z,92.42
2019-02-26T08:03:43.821Z,91.94
2019-02-26T08:04:43.634Z,91.85
2019-02-26T08:05:41.895Z,92.04
2019-02-26T08:06:41.901Z,91.85
2019-02-26T08:07:43.863Z,92.14
2019-02-26T08:08:42.602Z,92.04
2019-02-26T08:09:41.946Z,92.71
2019-02-26T08:10:42.848Z,92.61
2019-02-26T08:11:43.795Z,92.80
2019-02-26T08:12:42.699Z,92.61
2019-02-26T08:13:42.007Z,92.61
2019-02-26T08:14:42.965Z,92.23
2019-02-26T08:15:42.037Z,92.23
2019-02-26T08:16:42.056Z,92.28
2019-02-26T08:17:45.645Z,92.18
2019-02-26T08:18:42.082Z,91.52
2019-02-26T08:19:44.878Z,91.89
2019-02-26T08:20:42.111Z,91.42
2019-02-26T08:21:42.129Z,91.52
2019-02-26T08:22:42.145Z,91.61
2019-02-26T08:23:43.649Z,91.61
2019-02-26T08:24:42.181Z,91.24
2019-02-26T08:25:42.188Z,91.24
2019-02-26T08:26:42.955Z,91.04
2019-02-26T08:27:42.219Z,91.14
2019-02-26T08:28:44.058Z,91.42
2019-02-26T08:29:42.250Z,91.04
2019-02-26T08:30:44.513Z,91.04
2019-02-26T08:31:44.633Z,91.24
2019-02-26T08:32:42.302Z,91.28
2019-02-26T08:33:42.312Z,90.99
2019-02-26T08:34:42.334Z,91.09
2019-02-26T08:35:42.344Z,91.09
2019-02-26T08:36:46.215Z,91.09
2019-02-26T08:37:42.375Z,91.09
2019-02-26T08:38:42.391Z,91.09
2019-02-26T08:39:42.411Z,90.99
2019-02-26T08:40:42.432Z,90.71
2019-02-26T08:41:42.439Z,90.61
2019-02-26T08:42:42.463Z,90.71
2019-02-26T08:43:46.381Z,90.52
2019-02-26T08:44:46.218Z,90.23
2019-02-26T08:45:42.504Z,90.05
2019-02-26T08:46:44.342Z,89.95
2019-02-26T08:47:42.536Z,89.86
2019-02-26T08:48:45.537Z,89.95
2019-02-26T08:49:43.500Z,89.76
2019-02-26T08:50:44.067Z,89.42
2019-02-26T08:51:42.600Z,89.90
2019-02-26T08:52:44.897Z,89.23
2019-02-26T08:53:44.541Z,89.14
2019-02-26T08:54:42.650Z,89.33
2019-02-26T08:55:42.674Z,89.33
2019-02-26T08:56:42.679Z,89.23
2019-02-26T08:57:42.694Z,88.85
2019-02-26T08:58:43.628Z,88.85
2019-02-26T08:59:45.451Z,88.57
2019-02-26T09:00:42.747Z,88.67
2019-02-26T09:01:42.774Z,88.13
2019-02-26T09:02:43.722Z,88.52
2019-02-26T09:03:42.792Z,88.23
2019-02-26T09:04:44.863Z,88.23
2019-02-26T09:05:42.826Z,88.52
2019-02-26T09:06:42.840Z,87.95
2019-02-26T09:07:45.045Z,88.04
2019-02-26T09:08:43.134Z,87.85
2019-02-26T09:09:44.614Z,88.13
2019-02-26T09:10:43.713Z,87.85
2019-02-26T09:11:42.929Z,88.04
2019-02-26T09:12:44.140Z,87.38
2019-02-26T09:13:43.883Z,87.85
2019-02-26T09:14:45.137Z,87.28
2019-02-26T09:15:43.206Z,87.38
2019-02-26T09:16:43.019Z,87.38
2019-02-26T09:17:43.023Z,87.23
2019-02-26T09:18:43.042Z,86.76
2019-02-26T09:19:43.057Z,86.76
2019-02-26T09:20:43.072Z,86.57
2019-02-26T09:21:45.236Z,85.99
2019-02-26T09:22:45.811Z,85.99
2019-02-26T09:23:47.406Z,85.80
2019-02-26T09:24:43.142Z,85.37
2019-02-26T09:25:43.156Z,85.28
2019-02-26T09:26:43.172Z,84.70
2019-02-26T09:27:43.247Z,84.70
2019-02-26T09:28:45.620Z,84.42
2019-02-26T09:29:48.831Z,83.56
2019-02-26T09:30:43.242Z,83.41
2019-02-26T09:31:43.258Z,83.32
2019-02-26T09:32:44.837Z,83.03
2019-02-26T09:33:45.442Z,82.46
2019-02-26T09:34:43.309Z,82.37
2019-02-26T09:35:45.110Z,82.46
2019-02-26T09:36:45.823Z,82.75
2019-02-26T09:37:45.386Z,82.27
2019-02-26T09:38:44.271Z,81.70
2019-02-26T09:39:43.396Z,81.26
2019-02-26T09:40:45.185Z,81.23
2019-02-26T09:41:45.536Z,81.46
2019-02-26T09:42:43.954Z,80.98
2019-02-26T09:43:45.766Z,80.69
2019-02-26T09:44:43.485Z,80.41
2019-02-26T09:45:45.718Z,79.93
2019-02-26T09:46:44.009Z,79.27
2019-02-26T09:47:44.955Z,79.46
2019-02-26T09:48:45.311Z,79.55
2019-02-26T09:49:43.572Z,79.02
2019-02-26T09:50:46.017Z,78.64
2019-02-26T09:51:43.612Z,78.54
2019-02-26T09:52:45.268Z,77.87
2019-02-26T09:53:43.643Z,77.78
2019-02-26T09:54:46.392Z,77.69
2019-02-26T09:55:43.678Z,77.49
2019-02-26T09:56:43.697Z,77.49
2019-02-26T09:57:43.712Z,77.40
2019-02-26T09:58:45.780Z,77.30
2019-02-26T09:59:43.751Z,77.49
2019-02-26T10:00:45.714Z,77.30
2019-02-26T10:01:43.785Z,77.49
2019-02-26T10:02:44.791Z,77.40
2019-02-26T10:03:43.826Z,76.39
2019-02-26T10:04:45.078Z,76.67
2019-02-26T10:05:45.897Z,75.91
2019-02-26T10:06:44.950Z,76.10
2019-02-26T10:07:43.896Z,75.72
2019-02-26T10:08:46.006Z,75.15
2019-02-26T10:09:46.487Z,74.96
2019-02-26T10:10:43.974Z,74.90
2019-02-26T10:11:45.075Z,74.38
2019-02-26T10:12:43.984Z,74.67
2019-02-26T10:13:44.463Z,74.52
2019-02-26T10:14:44.032Z,74.32
2019-02-26T10:15:44.824Z,74.32
2019-02-26T10:16:44.546Z,73.75
2019-02-26T10:17:45.200Z,73.56
2019-02-26T10:18:45.085Z,73.66
2019-02-26T10:19:44.115Z,73.75
2019-02-26T10:20:47.037Z,73.75
2019-02-26T10:21:44.920Z,73.66
2019-02-26T10:22:44.172Z,72.89
2019-02-26T10:23:47.212Z,72.89
2019-02-26T10:24:44.219Z,72.80
2019-02-26T10:25:44.235Z,72.83
2019-02-26T10:26:44.247Z,71.98
2019-02-26T10:27:45.449Z,71.98
2019-02-26T10:28:46.646Z,71.21
2019-02-26T10:29:45.169Z,71.41
2019-02-26T10:30:44.349Z,71.12
2019-02-26T10:31:44.342Z,70.92
2019-02-26T10:32:46.810Z,70.92
2019-02-26T10:33:46.343Z,71.31
2019-02-26T10:34:44.400Z,71.53
2019-02-26T10:35:45.560Z,70.96
2019-02-26T10:36:47.213Z,71.21
2019-02-26T10:37:44.456Z,70.87
2019-02-26T10:38:44.473Z,70.10
2019-02-26T10:39:47.323Z,69.72
2019-02-26T10:40:51.498Z,69.15
2019-02-26T10:41:46.598Z,68.86
2019-02-26T10:42:46.223Z,68.48
2019-02-26T10:43:44.578Z,68.38
2019-02-26T10:44:44.590Z,66.85
2019-02-26T10:45:47.295Z,67.05
2019-02-26T10:46:44.636Z,67.14
2019-02-26T10:47:44.645Z,66.56
2019-02-26T10:48:45.661Z,66.76
2019-02-26T10:49:46.466Z,67.14
2019-02-26T10:50:48.263Z,66.95
2019-02-26T10:51:44.725Z,66.85
2019-02-26T10:52:44.746Z,66.00
2019-02-26T10:53:44.765Z,66.28
2019-02-26T10:54:46.603Z,65.90
2019-02-26T10:55:44.807Z,65.23
2019-02-26T10:56:44.995Z,64.09
2019-02-26T10:57:47.751Z,63.16
2019-02-26T10:58:44.857Z,62.55
2019-02-26T10:59:45.142Z,61.63
2019-02-26T11:00:44.898Z,61.82
2019-02-26T11:01:46.751Z,61.25
2019-02-26T11:02:46.142Z,61.63
2019-02-26T11:03:47.240Z,61.63
2019-02-26T11:04:46.905Z,62.21
2019-02-26T11:05:45.967Z,62.30
2019-02-26T11:06:46.895Z,63.45
2019-02-26T11:07:45.099Z,62.40
2019-02-26T11:08:47.039Z,61.35
2019-02-26T11:09:47.373Z,60.77
2019-02-26T11:10:47.862Z,61.25
2019-02-26T11:11:45.121Z,60.58
2019-02-26T11:12:45.797Z,60.58
2019-02-26T11:13:47.001Z,61.06
2019-02-26T11:14:45.180Z,61.63
2019-02-26T11:15:45.197Z,61.63
2019-02-26T11:16:45.224Z,61.63
2019-02-26T11:17:46.225Z,61.63
2019-02-26T11:18:47.537Z,61.16
2019-02-26T11:19:45.279Z,61.38
2019-02-26T11:20:47.720Z,60.71
2019-02-26T11:21:47.310Z,59.75
2019-02-26T11:22:47.194Z,58.98
2019-02-26T11:23:46.426Z,59.08
2019-02-26T11:24:45.370Z,58.80
2019-02-26T11:25:45.390Z,58.22
2019-02-26T11:26:45.415Z,56.40
2019-02-26T11:27:46.048Z,54.78
2019-02-26T11:28:47.456Z,54.59
2019-02-26T11:29:45.471Z,53.25
2019-02-26T11:30:46.546Z,52.10
2019-02-26T11:31:47.716Z,52.01
2019-02-26T11:32:45.532Z,51.24
2019-02-26T11:33:45.552Z,50.95
2019-02-26T11:34:45.573Z,50.98
2019-02-26T11:35:47.108Z,51.17
2019-02-26T11:36:45.612Z,50.21
2019-02-26T11:37:47.312Z,49.84
2019-02-26T11:38:47.088Z,48.02
2019-02-26T11:39:45.670Z,47.63
2019-02-26T11:40:45.700Z,47.63
2019-02-26T11:41:45.734Z,47.34
2019-02-26T11:42:46.799Z,47.34
2019-02-26T11:43:45.762Z,47.63
2019-02-26T11:44:45.775Z,48.30
2019-02-26T11:45:45.791Z,48.30
2019-02-26T11:46:46.753Z,47.73
2019-02-26T11:47:45.835Z,47.73
2019-02-26T11:48:47.685Z,48.39
2019-02-26T11:49:46.653Z,48.11
2019-02-26T11:50:45.895Z,47.92
2019-02-26T11:51:45.916Z,46.96
2019-02-26T11:52:45.936Z,46.98
2019-02-26T11:53:46.329Z,46.31
2019-02-26T11:54:45.974Z,45.94
2019-02-26T11:55:45.997Z,46.61
2019-02-26T11:56:47.298Z,46.12
2019-02-26T11:57:47.896Z,46.22
2019-02-26T11:58:46.060Z,45.65
2019-02-26T11:59:46.085Z,45.84
2019-02-26T12:00:48.087Z,45.84
2019-02-26T12:01:46.120Z,45.74
2019-02-26T12:02:46.142Z,45.84
2019-02-26T12:03:46.163Z,45.26
2019-02-26T12:04:46.180Z,44.59
2019-02-26T12:05:46.202Z,43.54
2019-02-26T12:06:46.223Z,43.35
2019-02-26T12:07:48.620Z,41.91
2019-02-26T12:08:47.328Z,41.82
2019-02-26T12:09:46.284Z,42.22
2019-02-26T12:10:46.305Z,41.46
2019-02-26T12:11:46.323Z,41.74
2019-02-26T12:12:48.370Z,41.74
2019-02-26T12:13:47.341Z,42.32
2019-02-26T12:14:48.535Z,41.94
2019-02-26T12:15:46.408Z,42.22
2019-02-26T12:16:46.777Z,42.22
2019-02-26T12:17:49.126Z,42.51
2019-02-26T12:18:47.029Z,42.41
2019-02-26T12:19:48.477Z,42.60
2019-02-26T12:20:48.731Z,42.90
2019-02-26T12:21:49.291Z,42.13
2019-02-26T12:22:47.958Z,41.55
2019-02-26T12:23:46.821Z,40.78
2019-02-26T12:24:47.842Z,40.59
2019-02-26T12:25:47.137Z,40.69
2019-02-26T12:26:47.733Z,41.48
2019-02-26T12:27:48.130Z,40.90
2019-02-26T12:28:46.678Z,40.31
2019-02-26T12:29:48.313Z,39.37
2019-02-26T12:30:46.862Z,38.89
2019-02-26T12:31:46.748Z,38.98
2019-02-26T12:32:47.633Z,39.85
2019-02-26T12:33:46.782Z,39.08
2019-02-26T12:34:48.473Z,38.70
2019-02-26T12:35:46.824Z,38.89
2019-02-26T12:36:48.065Z,39.28
2019-02-26T12:37:47.323Z,39.47
2019-02-26T12:38:49.658Z,39.08
2019-02-26T12:39:49.573Z,38.12
2019-02-26T12:40:47.937Z,37.74
2019-02-26T12:41:48.095Z,37.84
2019-02-26T12:42:46.968Z,37.74
2019-02-26T12:43:46.991Z,37.84
2019-02-26T12:44:47.011Z,37.84
2019-02-26T12:45:47.031Z,37.84
2019-02-26T12:46:47.816Z,37.65
2019-02-26T12:47:49.425Z,37.16
2019-02-26T12:48:50.156Z,36.98
2019-02-26T12:49:47.117Z,36.88
2019-02-26T12:50:47.137Z,36.79
2019-02-26T12:51:47.631Z,36.88
2019-02-26T12:52:48.313Z,35.73